sensor_id;sensor_type;location;lat;lon;timestamp;pressure;altitude;pressure_sealevel;temperature;humidity
58785;BME280;44557;51.862;19.378;2023-04-01T00:00:32;97320.34;;;10.63;96.59
58785;BME280;44557;51.862;19.378;2023-04-01T00:02:49;97318.70;;;10.61;96.93
58785;BME280;44557;51.862;19.378;2023-04-01T00:04:50;97321.22;;;10.55;97.13
58785;BME280;44557;51.862;19.378;2023-04-01T00:06:55;97317.67;;;10.54;97.12
58785;BME280;44557;51.862;19.378;2023-04-01T00:08:57;97314.88;;;10.78;96.51
58785;BME280;44557;51.862;19.378;2023-04-01T00:10:58;97311.27;;;10.73;96.25
58785;BME280;44557;51.862;19.378;2023-04-01T00:13:00;97310.02;;;10.68;96.79
58785;BME280;44557;51.862;19.378;2023-04-01T00:15:01;97314.41;;;10.78;96.00
58785;BME280;44557;51.862;19.378;2023-04-01T00:17:03;97311.67;;;10.74;95.72
58785;BME280;44557;51.862;19.378;2023-04-01T00:19:04;97315.64;;;10.54;96.90
58785;BME280;44557;51.862;19.378;2023-04-01T00:21:06;97313.89;;;10.66;96.55
58785;BME280;44557;51.862;19.378;2023-04-01T00:23:07;97315.95;;;10.54;96.64
58785;BME280;44557;51.862;19.378;2023-04-01T00:25:08;97312.65;;;10.48;97.23
58785;BME280;44557;51.862;19.378;2023-04-01T00:27:09;97315.17;;;10.52;96.89
58785;BME280;44557;51.862;19.378;2023-04-01T00:29:10;97316.41;;;10.57;96.17
58785;BME280;44557;51.862;19.378;2023-04-01T00:31:12;97314.30;;;10.57;96.12
58785;BME280;44557;51.862;19.378;2023-04-01T00:33:13;97315.23;;;10.57;95.71
58785;BME280;44557;51.862;19.378;2023-04-01T00:35:14;97316.59;;;10.53;95.03
58785;BME280;44557;51.862;19.378;2023-04-01T00:37:15;97315.98;;;10.37;95.97
58785;BME280;44557;51.862;19.378;2023-04-01T00:39:16;97315.26;;;10.50;95.97
58785;BME280;44557;51.862;19.378;2023-04-01T00:41:18;97315.27;;;10.51;95.59
58785;BME280;44557;51.862;19.378;2023-04-01T00:43:20;97315.73;;;10.48;96.29
58785;BME280;44557;51.862;19.378;2023-04-01T00:45:39;97312.04;;;10.36;96.42
58785;BME280;44557;51.862;19.378;2023-04-01T00:47:40;97318.09;;;10.41;96.43
58785;BME280;44557;51.862;19.378;2023-04-01T00:49:45;97319.52;;;10.42;96.67
58785;BME280;44557;51.862;19.378;2023-04-01T00:51:50;97318.56;;;10.40;96.75
58785;BME280;44557;51.862;19.378;2023-04-01T00:53:57;97315.98;;;10.44;96.58
58785;BME280;44557;51.862;19.378;2023-04-01T00:56:10;97312.92;;;10.34;97.11
58785;BME280;44557;51.862;19.378;2023-04-01T00:58:15;97310.63;;;10.40;96.93
58785;BME280;44557;51.862;19.378;2023-04-01T01:00:18;97308.74;;;10.25;97.49
58785;BME280;44557;51.862;19.378;2023-04-01T01:02:19;97307.17;;;10.30;97.34
58785;BME280;44557;51.862;19.378;2023-04-01T01:04:32;97302.77;;;10.33;97.43
58785;BME280;44557;51.862;19.378;2023-04-01T01:07:08;97304.42;;;10.30;97.19
58785;BME280;44557;51.862;19.378;2023-04-01T01:09:22;97296.64;;;10.26;97.77
58785;BME280;44557;51.862;19.378;2023-04-01T01:11:35;97297.20;;;10.31;97.75
58785;BME280;44557;51.862;19.378;2023-04-01T01:13:53;97297.02;;;10.46;96.52
58785;BME280;44557;51.862;19.378;2023-04-01T01:16:05;97293.16;;;10.50;96.27
58785;BME280;44557;51.862;19.378;2023-04-01T01:18:29;97288.30;;;10.29;96.66
58785;BME280;44557;51.862;19.378;2023-04-01T01:24:55;97283.98;;;10.29;96.65
58785;BME280;44557;51.862;19.378;2023-04-01T01:27:13;97282.98;;;10.14;97.16
58785;BME280;44557;51.862;19.378;2023-04-01T01:34:40;97283.98;;;10.17;96.17
58785;BME280;44557;51.862;19.378;2023-04-01T01:36:48;97284.08;;;10.21;95.93
58785;BME280;44557;51.862;19.378;2023-04-01T01:38:52;97286.18;;;10.17;96.40
58785;BME280;44557;51.862;19.378;2023-04-01T01:40:55;97284.47;;;10.22;95.95
58785;BME280;44557;51.862;19.378;2023-04-01T01:43:03;97286.66;;;10.18;96.15
58785;BME280;44557;51.862;19.378;2023-04-01T01:45:07;97286.88;;;10.41;95.34
58785;BME280;44557;51.862;19.378;2023-04-01T01:47:10;97283.52;;;10.17;96.07
58785;BME280;44557;51.862;19.378;2023-04-01T01:49:12;97286.73;;;10.12;96.56
58785;BME280;44557;51.862;19.378;2023-04-01T01:51:14;97287.21;;;10.18;96.10
58785;BME280;44557;51.862;19.378;2023-04-01T01:53:15;97284.30;;;10.10;96.90
58785;BME280;44557;51.862;19.378;2023-04-01T01:55:32;97283.20;;;10.20;96.80
58785;BME280;44557;51.862;19.378;2023-04-01T01:57:36;97285.73;;;10.17;96.57
58785;BME280;44557;51.862;19.378;2023-04-01T01:59:39;97285.02;;;10.15;96.82
58785;BME280;44557;51.862;19.378;2023-04-01T02:01:46;97286.64;;;10.45;95.66
58785;BME280;44557;51.862;19.378;2023-04-01T02:03:50;97285.23;;;10.27;96.08
58785;BME280;44557;51.862;19.378;2023-04-01T02:05:55;97280.92;;;10.11;97.24
58785;BME280;44557;51.862;19.378;2023-04-01T02:08:05;97278.64;;;10.10;97.41
58785;BME280;44557;51.862;19.378;2023-04-01T02:10:08;97272.66;;;10.08;97.83
58785;BME280;44557;51.862;19.378;2023-04-01T02:12:11;97276.90;;;10.11;97.56
58785;BME280;44557;51.862;19.378;2023-04-01T02:14:16;97278.25;;;10.17;97.22
58785;BME280;44557;51.862;19.378;2023-04-01T02:16:34;97276.19;;;10.06;97.99
58785;BME280;44557;51.862;19.378;2023-04-01T02:18:38;97274.63;;;10.07;98.05
58785;BME280;44557;51.862;19.378;2023-04-01T02:20:39;97275.96;;;10.10;97.94
58785;BME280;44557;51.862;19.378;2023-04-01T02:22:46;97278.09;;;10.25;97.00
58785;BME280;44557;51.862;19.378;2023-04-01T02:24:50;97276.77;;;10.16;97.36
58785;BME280;44557;51.862;19.378;2023-04-01T02:26:53;97279.19;;;10.21;97.41
58785;BME280;44557;51.862;19.378;2023-04-01T02:28:55;97277.32;;;10.24;96.75
58785;BME280;44557;51.862;19.378;2023-04-01T02:30:57;97279.27;;;10.04;97.62
58785;BME280;44557;51.862;19.378;2023-04-01T02:33:01;97277.09;;;10.17;97.34
58785;BME280;44557;51.862;19.378;2023-04-01T02:35:06;97272.67;;;10.19;97.14
58785;BME280;44557;51.862;19.378;2023-04-01T02:37:07;97273.98;;;10.05;97.93
58785;BME280;44557;51.862;19.378;2023-04-01T02:39:08;97272.19;;;10.23;97.21
58785;BME280;44557;51.862;19.378;2023-04-01T02:41:10;97276.91;;;10.23;96.89
58785;BME280;44557;51.862;19.378;2023-04-01T02:43:11;97277.06;;;10.31;96.26
58785;BME280;44557;51.862;19.378;2023-04-01T02:45:13;97274.79;;;10.13;97.05
58785;BME280;44557;51.862;19.378;2023-04-01T02:47:14;97278.09;;;10.18;96.67
58785;BME280;44557;51.862;19.378;2023-04-01T02:49:15;97273.84;;;10.24;96.12
58785;BME280;44557;51.862;19.378;2023-04-01T02:51:16;97279.59;;;10.19;96.30
58785;BME280;44557;51.862;19.378;2023-04-01T02:53:17;97282.35;;;10.15;96.32
58785;BME280;44557;51.862;19.378;2023-04-01T02:55:18;97284.29;;;10.08;96.51
58785;BME280;44557;51.862;19.378;2023-04-01T02:57:18;97282.96;;;10.08;96.46
58785;BME280;44557;51.862;19.378;2023-04-01T02:59:19;97280.67;;;10.05;96.22
58785;BME280;44557;51.862;19.378;2023-04-01T03:01:21;97284.05;;;10.08;96.03
58785;BME280;44557;51.862;19.378;2023-04-01T03:03:22;97283.80;;;10.07;96.13
58785;BME280;44557;51.862;19.378;2023-04-01T03:05:23;97283.41;;;9.99;96.46
58785;BME280;44557;51.862;19.378;2023-04-01T03:07:24;97286.48;;;10.09;95.68
58785;BME280;44557;51.862;19.378;2023-04-01T03:09:25;97290.02;;;9.95;96.41
58785;BME280;44557;51.862;19.378;2023-04-01T03:11:26;97291.20;;;9.99;96.28
58785;BME280;44557;51.862;19.378;2023-04-01T03:13:27;97294.10;;;9.81;97.02
58785;BME280;44557;51.862;19.378;2023-04-01T03:15:28;97294.00;;;9.77;97.26
58785;BME280;44557;51.862;19.378;2023-04-01T03:17:29;97293.78;;;9.78;97.18
58785;BME280;44557;51.862;19.378;2023-04-01T03:19:30;97293.62;;;9.80;97.25
58785;BME280;44557;51.862;19.378;2023-04-01T03:21:31;97297.40;;;9.94;96.18
58785;BME280;44557;51.862;19.378;2023-04-01T03:23:32;97299.28;;;9.92;95.79
58785;BME280;44557;51.862;19.378;2023-04-01T03:25:33;97297.02;;;9.92;95.89
58785;BME280;44557;51.862;19.378;2023-04-01T03:27:34;97295.90;;;9.87;95.37
58785;BME280;44557;51.862;19.378;2023-04-01T03:29:38;97298.16;;;9.69;96.94
58785;BME280;44557;51.862;19.378;2023-04-01T03:31:39;97297.68;;;9.59;97.06
58785;BME280;44557;51.862;19.378;2023-04-01T03:33:40;97303.13;;;9.75;96.79
58785;BME280;44557;51.862;19.378;2023-04-01T03:35:41;97304.76;;;9.64;96.79
58785;BME280;44557;51.862;19.378;2023-04-01T03:37:42;97309.52;;;9.53;97.30
58785;BME280;44557;51.862;19.378;2023-04-01T03:39:43;97307.48;;;9.52;97.42
58785;BME280;44557;51.862;19.378;2023-04-01T03:41:45;97306.41;;;9.71;96.58
58785;BME280;44557;51.862;19.378;2023-04-01T03:43:46;97306.16;;;9.63;96.21
58785;BME280;44557;51.862;19.378;2023-04-01T03:45:49;97305.29;;;9.61;96.47
58785;BME280;44557;51.862;19.378;2023-04-01T03:47:51;97308.13;;;9.61;96.31
58785;BME280;44557;51.862;19.378;2023-04-01T03:49:52;97313.66;;;9.50;96.70
58785;BME280;44557;51.862;19.378;2023-04-01T03:51:53;97312.61;;;9.66;95.98
58785;BME280;44557;51.862;19.378;2023-04-01T03:53:54;97311.96;;;9.63;95.88
58785;BME280;44557;51.862;19.378;2023-04-01T03:55:55;97313.63;;;9.63;96.01
58785;BME280;44557;51.862;19.378;2023-04-01T03:57:56;97312.42;;;9.51;96.18
58785;BME280;44557;51.862;19.378;2023-04-01T03:59:58;97319.61;;;9.42;96.56
58785;BME280;44557;51.862;19.378;2023-04-01T04:01:59;97319.51;;;9.59;96.15
58785;BME280;44557;51.862;19.378;2023-04-01T04:04:00;97319.20;;;9.65;95.53
58785;BME280;44557;51.862;19.378;2023-04-01T04:06:01;97317.10;;;9.75;94.72
58785;BME280;44557;51.862;19.378;2023-04-01T04:08:02;97313.23;;;9.66;95.00
58785;BME280;44557;51.862;19.378;2023-04-01T04:10:04;97316.47;;;9.38;96.26
58785;BME280;44557;51.862;19.378;2023-04-01T04:12:05;97324.26;;;9.43;96.43
58785;BME280;44557;51.862;19.378;2023-04-01T04:14:06;97326.27;;;9.59;95.56
58785;BME280;44557;51.862;19.378;2023-04-01T04:16:07;97328.68;;;9.54;95.43
58785;BME280;44557;51.862;19.378;2023-04-01T04:18:09;97331.31;;;9.39;95.94
58785;BME280;44557;51.862;19.378;2023-04-01T04:20:09;97333.30;;;9.47;95.82
58785;BME280;44557;51.862;19.378;2023-04-01T04:22:11;97332.55;;;9.60;95.46
58785;BME280;44557;51.862;19.378;2023-04-01T04:24:12;97328.69;;;9.51;95.51
58785;BME280;44557;51.862;19.378;2023-04-01T04:26:14;97332.61;;;9.54;95.51
58785;BME280;44557;51.862;19.378;2023-04-01T04:28:15;97336.85;;;9.53;95.52
58785;BME280;44557;51.862;19.378;2023-04-01T04:30:16;97338.06;;;9.41;95.96
58785;BME280;44557;51.862;19.378;2023-04-01T04:32:17;97339.52;;;9.50;95.70
58785;BME280;44557;51.862;19.378;2023-04-01T04:34:18;97341.21;;;9.41;95.81
58785;BME280;44557;51.862;19.378;2023-04-01T04:36:20;97338.23;;;9.42;96.28
58785;BME280;44557;51.862;19.378;2023-04-01T04:38:21;97334.23;;;9.44;95.94
58785;BME280;44557;51.862;19.378;2023-04-01T04:40:22;97332.30;;;9.53;95.16
58785;BME280;44557;51.862;19.378;2023-04-01T04:42:23;97331.95;;;9.45;95.20
58785;BME280;44557;51.862;19.378;2023-04-01T04:44:24;97328.09;;;9.35;96.02
58785;BME280;44557;51.862;19.378;2023-04-01T04:46:25;97325.95;;;9.31;96.45
58785;BME280;44557;51.862;19.378;2023-04-01T04:48:26;97328.74;;;9.47;95.42
58785;BME280;44557;51.862;19.378;2023-04-01T04:50:27;97328.55;;;9.34;95.92
58785;BME280;44557;51.862;19.378;2023-04-01T04:52:28;97332.98;;;9.46;95.52
58785;BME280;44557;51.862;19.378;2023-04-01T04:54:29;97332.69;;;9.57;95.00
58785;BME280;44557;51.862;19.378;2023-04-01T04:56:30;97336.83;;;9.46;95.21
58785;BME280;44557;51.862;19.378;2023-04-01T04:58:32;97337.20;;;9.66;94.36
58785;BME280;44557;51.862;19.378;2023-04-01T05:00:32;97332.84;;;9.58;94.60
58785;BME280;44557;51.862;19.378;2023-04-01T05:02:34;97332.39;;;9.54;94.81
58785;BME280;44557;51.862;19.378;2023-04-01T05:04:35;97333.63;;;9.51;95.02
58785;BME280;44557;51.862;19.378;2023-04-01T05:06:37;97333.17;;;9.64;94.46
58785;BME280;44557;51.862;19.378;2023-04-01T05:08:38;97331.51;;;9.53;94.63
58785;BME280;44557;51.862;19.378;2023-04-01T05:10:40;97328.34;;;9.46;95.11
58785;BME280;44557;51.862;19.378;2023-04-01T05:12:40;97331.48;;;9.42;95.59
58785;BME280;44557;51.862;19.378;2023-04-01T05:14:41;97332.45;;;9.51;95.45
58785;BME280;44557;51.862;19.378;2023-04-01T05:16:42;97334.01;;;9.48;95.22
58785;BME280;44557;51.862;19.378;2023-04-01T05:18:43;97332.49;;;9.43;95.12
58785;BME280;44557;51.862;19.378;2023-04-01T05:20:52;97329.88;;;9.35;96.09
58785;BME280;44557;51.862;19.378;2023-04-01T05:23:00;97328.84;;;9.54;95.30
58785;BME280;44557;51.862;19.378;2023-04-01T05:25:00;97328.99;;;9.54;95.20
58785;BME280;44557;51.862;19.378;2023-04-01T05:27:01;97334.80;;;9.51;95.62
58785;BME280;44557;51.862;19.378;2023-04-01T05:29:04;97333.70;;;9.49;95.65
58785;BME280;44557;51.862;19.378;2023-04-01T05:31:06;97334.54;;;9.42;95.68
58785;BME280;44557;51.862;19.378;2023-04-01T05:33:08;97335.29;;;9.57;95.05
58785;BME280;44557;51.862;19.378;2023-04-01T05:35:09;97334.37;;;9.39;95.88
58785;BME280;44557;51.862;19.378;2023-04-01T05:37:10;97334.25;;;9.53;95.62
58785;BME280;44557;51.862;19.378;2023-04-01T05:39:11;97333.48;;;9.59;95.03
58785;BME280;44557;51.862;19.378;2023-04-01T05:41:12;97333.33;;;9.61;94.80
58785;BME280;44557;51.862;19.378;2023-04-01T05:43:13;97328.92;;;9.58;95.24
58785;BME280;44557;51.862;19.378;2023-04-01T05:45:15;97328.69;;;9.58;94.90
58785;BME280;44557;51.862;19.378;2023-04-01T05:47:16;97331.04;;;9.50;95.40
58785;BME280;44557;51.862;19.378;2023-04-01T05:49:17;97333.61;;;9.48;95.51
58785;BME280;44557;51.862;19.378;2023-04-01T05:51:18;97337.34;;;9.61;94.93
58785;BME280;44557;51.862;19.378;2023-04-01T05:53:18;97334.64;;;9.48;95.21
58785;BME280;44557;51.862;19.378;2023-04-01T05:55:20;97340.52;;;9.45;95.57
58785;BME280;44557;51.862;19.378;2023-04-01T05:57:21;97339.01;;;9.38;96.22
58785;BME280;44557;51.862;19.378;2023-04-01T05:59:22;97337.21;;;9.45;95.76
58785;BME280;44557;51.862;19.378;2023-04-01T06:01:23;97336.69;;;9.52;95.64
58785;BME280;44557;51.862;19.378;2023-04-01T06:03:23;97336.94;;;9.60;95.42
58785;BME280;44557;51.862;19.378;2023-04-01T06:05:28;97337.89;;;9.58;95.26
58785;BME280;44557;51.862;19.378;2023-04-01T06:07:29;97335.12;;;9.53;95.47
58785;BME280;44557;51.862;19.378;2023-04-01T06:09:30;97336.35;;;9.43;95.74
58785;BME280;44557;51.862;19.378;2023-04-01T06:11:45;97336.13;;;9.52;95.66
58785;BME280;44557;51.862;19.378;2023-04-01T06:16:08;97338.63;;;9.78;94.68
58785;BME280;44557;51.862;19.378;2023-04-01T06:28:52;97350.89;;;9.79;95.07
58785;BME280;44557;51.862;19.378;2023-04-01T06:31:16;97346.52;;;9.96;94.41
58785;BME280;44557;51.862;19.378;2023-04-01T06:36:14;97351.77;;;9.89;94.94
58785;BME280;44557;51.862;19.378;2023-04-01T06:38:36;97348.38;;;9.84;95.70
58785;BME280;44557;51.862;19.378;2023-04-01T06:41:32;97345.20;;;10.05;94.87
58785;BME280;44557;51.862;19.378;2023-04-01T06:53:22;97342.78;;;10.10;94.04
58785;BME280;44557;51.862;19.378;2023-04-01T06:55:38;97344.52;;;10.31;93.24
58785;BME280;44557;51.862;19.378;2023-04-01T06:57:46;97347.10;;;10.12;93.63
58785;BME280;44557;51.862;19.378;2023-04-01T06:59:48;97347.23;;;10.03;94.66
58785;BME280;44557;51.862;19.378;2023-04-01T07:01:51;97349.06;;;10.01;95.57
58785;BME280;44557;51.862;19.378;2023-04-01T07:04:02;97351.91;;;10.27;94.21
58785;BME280;44557;51.862;19.378;2023-04-01T07:06:31;97357.11;;;10.20;94.57
58785;BME280;44557;51.862;19.378;2023-04-01T07:08:33;97359.61;;;10.13;94.46
58785;BME280;44557;51.862;19.378;2023-04-01T07:10:47;97362.67;;;10.21;94.04
58785;BME280;44557;51.862;19.378;2023-04-01T07:12:54;97360.55;;;10.27;93.87
58785;BME280;44557;51.862;19.378;2023-04-01T07:14:58;97365.27;;;10.37;93.83
58785;BME280;44557;51.862;19.378;2023-04-01T07:21:25;97360.00;;;10.69;92.32
58785;BME280;44557;51.862;19.378;2023-04-01T07:23:32;97358.02;;;10.73;92.90
58785;BME280;44557;51.862;19.378;2023-04-01T07:25:41;97354.26;;;10.59;92.64
58785;BME280;44557;51.862;19.378;2023-04-01T07:27:45;97352.78;;;10.48;93.23
58785;BME280;44557;51.862;19.378;2023-04-01T07:29:46;97358.17;;;10.67;92.03
58785;BME280;44557;51.862;19.378;2023-04-01T07:36:24;97360.48;;;10.32;93.57
58785;BME280;44557;51.862;19.378;2023-04-01T07:48:29;97359.14;;;10.26;93.68
58785;BME280;44557;51.862;19.378;2023-04-01T07:55:32;97364.55;;;10.24;93.70
58785;BME280;44557;51.862;19.378;2023-04-01T07:57:47;97364.73;;;10.24;93.77
58785;BME280;44557;51.862;19.378;2023-04-01T08:06:45;97373.22;;;10.50;92.89
58785;BME280;44557;51.862;19.378;2023-04-01T08:09:06;97372.90;;;10.53;92.76
58785;BME280;44557;51.862;19.378;2023-04-01T08:13:45;97377.92;;;10.53;93.70
58785;BME280;44557;51.862;19.378;2023-04-01T08:16:37;97375.48;;;10.80;92.36
58785;BME280;44557;51.862;19.378;2023-04-01T08:21:12;97381.59;;;10.87;92.44
58785;BME280;44557;51.862;19.378;2023-04-01T08:25:25;97383.09;;;10.92;92.20
58785;BME280;44557;51.862;19.378;2023-04-01T08:27:45;97382.38;;;10.85;92.24
58785;BME280;44557;51.862;19.378;2023-04-01T08:29:55;97381.55;;;10.60;93.96
58785;BME280;44557;51.862;19.378;2023-04-01T08:32:11;97381.77;;;10.70;94.08
58785;BME280;44557;51.862;19.378;2023-04-01T08:34:20;97382.58;;;10.54;95.18
58785;BME280;44557;51.862;19.378;2023-04-01T08:36:28;97384.92;;;10.60;95.34
58785;BME280;44557;51.862;19.378;2023-04-01T08:38:34;97383.58;;;10.78;94.60
58785;BME280;44557;51.862;19.378;2023-04-01T08:40:52;97381.45;;;10.80;94.91
58785;BME280;44557;51.862;19.378;2023-04-01T08:43:48;97382.57;;;10.69;94.64
58785;BME280;44557;51.862;19.378;2023-04-01T08:50:50;97380.21;;;10.72;95.22
58785;BME280;44557;51.862;19.378;2023-04-01T08:55:46;97383.67;;;11.07;93.43
58785;BME280;44557;51.862;19.378;2023-04-01T09:00:31;97382.49;;;10.65;94.11
58785;BME280;44557;51.862;19.378;2023-04-01T09:05:22;97377.34;;;10.91;92.88
58785;BME280;44557;51.862;19.378;2023-04-01T09:15:07;97384.61;;;11.08;92.97
58785;BME280;44557;51.862;19.378;2023-04-01T09:20:07;97391.02;;;10.96;93.98
58785;BME280;44557;51.862;19.378;2023-04-01T09:22:22;97393.57;;;10.72;95.34
58785;BME280;44557;51.862;19.378;2023-04-01T09:31:38;97390.29;;;10.45;96.08
58785;BME280;44557;51.862;19.378;2023-04-01T09:36:33;97395.86;;;10.77;96.11
58785;BME280;44557;51.862;19.378;2023-04-01T09:48:21;97402.06;;;10.81;95.31
58785;BME280;44557;51.862;19.378;2023-04-01T09:56:15;97404.45;;;11.12;94.39
58785;BME280;44557;51.862;19.378;2023-04-01T09:59:45;97405.08;;;11.11;95.25
58785;BME280;44557;51.862;19.378;2023-04-01T10:01:54;97407.05;;;11.13;94.73
58785;BME280;44557;51.862;19.378;2023-04-01T10:04:25;97405.87;;;11.13;94.44
58785;BME280;44557;51.862;19.378;2023-04-01T10:09:23;97408.16;;;11.07;96.18
58785;BME280;44557;51.862;19.378;2023-04-01T10:14:13;97414.84;;;11.63;94.48
58785;BME280;44557;51.862;19.378;2023-04-01T10:16:26;97408.59;;;11.90;94.38
58785;BME280;44557;51.862;19.378;2023-04-01T10:26:19;97410.98;;;12.00;89.56
58785;BME280;44557;51.862;19.378;2023-04-01T10:40:36;97419.69;;;11.31;93.59
58785;BME280;44557;51.862;19.378;2023-04-01T11:02:17;97427.59;;;11.12;92.10
58785;BME280;44557;51.862;19.378;2023-04-01T11:16:00;97437.52;;;11.47;91.51
58785;BME280;44557;51.862;19.378;2023-04-01T11:27:51;97448.08;;;11.92;90.23
58785;BME280;44557;51.862;19.378;2023-04-01T11:32:28;97445.34;;;12.52;88.37
58785;BME280;44557;51.862;19.378;2023-04-01T11:41:51;97450.90;;;12.23;85.35
58785;BME280;44557;51.862;19.378;2023-04-01T11:44:18;97451.50;;;12.01;86.18
58785;BME280;44557;51.862;19.378;2023-04-01T11:49:12;97453.60;;;11.92;87.72
58785;BME280;44557;51.862;19.378;2023-04-01T12:10:19;97475.27;;;11.35;90.62
58785;BME280;44557;51.862;19.378;2023-04-01T12:15:10;97479.63;;;11.19;91.72
58785;BME280;44557;51.862;19.378;2023-04-01T12:24:45;97490.56;;;11.22;92.76
58785;BME280;44557;51.862;19.378;2023-04-01T12:31:52;97495.54;;;11.26;93.30
58785;BME280;44557;51.862;19.378;2023-04-01T12:39:02;97495.23;;;11.59;91.70
58785;BME280;44557;51.862;19.378;2023-04-01T12:45:02;97496.99;;;11.46;93.29
58785;BME280;44557;51.862;19.378;2023-04-01T12:47:25;97495.01;;;11.53;92.27
58785;BME280;44557;51.862;19.378;2023-04-01T12:52:34;97504.02;;;11.29;90.82
58785;BME280;44557;51.862;19.378;2023-04-01T12:57:03;97508.53;;;11.16;91.66
58785;BME280;44557;51.862;19.378;2023-04-01T13:04:22;97517.91;;;10.92;93.86
58785;BME280;44557;51.862;19.378;2023-04-01T13:09:09;97525.70;;;10.95;93.90
58785;BME280;44557;51.862;19.378;2023-04-01T13:16:20;97536.73;;;11.02;94.13
58785;BME280;44557;51.862;19.378;2023-04-01T13:18:39;97538.30;;;10.91;94.88
58785;BME280;44557;51.862;19.378;2023-04-01T13:25:49;97545.54;;;11.17;92.89
58785;BME280;44557;51.862;19.378;2023-04-01T13:27:58;97550.19;;;11.20;92.84
58785;BME280;44557;51.862;19.378;2023-04-01T13:35:47;97553.31;;;11.35;92.42
58785;BME280;44557;51.862;19.378;2023-04-01T13:40:21;97553.96;;;11.36;91.43
58785;BME280;44557;51.862;19.378;2023-04-01T13:42:33;97558.52;;;11.41;91.41
58785;BME280;44557;51.862;19.378;2023-04-01T13:45:00;97559.86;;;11.44;91.89
58785;BME280;44557;51.862;19.378;2023-04-01T13:47:17;97570.66;;;11.35;92.11
58785;BME280;44557;51.862;19.378;2023-04-01T13:56:50;97575.39;;;11.17;92.58
58785;BME280;44557;51.862;19.378;2023-04-01T14:01:17;97584.82;;;11.16;92.66
58785;BME280;44557;51.862;19.378;2023-04-01T14:05:56;97589.64;;;11.21;93.39
58785;BME280;44557;51.862;19.378;2023-04-01T14:08:09;97590.50;;;11.27;92.77
58785;BME280;44557;51.862;19.378;2023-04-01T14:10:23;97592.95;;;11.14;92.72
58785;BME280;44557;51.862;19.378;2023-04-01T14:12:40;97597.02;;;11.25;92.08
58785;BME280;44557;51.862;19.378;2023-04-01T14:15:20;97600.65;;;11.16;92.37
58785;BME280;44557;51.862;19.378;2023-04-01T14:17:44;97604.18;;;11.04;92.93
58785;BME280;44557;51.862;19.378;2023-04-01T14:24:32;97609.58;;;10.77;94.82
58785;BME280;44557;51.862;19.378;2023-04-01T14:29:53;97610.81;;;10.73;93.61
58785;BME280;44557;51.862;19.378;2023-04-01T14:32:23;97610.81;;;10.68;93.54
58785;BME280;44557;51.862;19.378;2023-04-01T14:41:24;97627.13;;;10.32;95.78
58785;BME280;44557;51.862;19.378;2023-04-01T14:46:59;97643.65;;;10.20;96.18
58785;BME280;44557;51.862;19.378;2023-04-01T14:49:30;97650.09;;;10.06;96.93
58785;BME280;44557;51.862;19.378;2023-04-01T14:51:35;97655.92;;;10.11;96.69
58785;BME280;44557;51.862;19.378;2023-04-01T14:53:43;97661.55;;;10.27;95.90
58785;BME280;44557;51.862;19.378;2023-04-01T14:55:50;97660.96;;;10.00;97.03
58785;BME280;44557;51.862;19.378;2023-04-01T14:57:59;97664.39;;;10.17;96.18
58785;BME280;44557;51.862;19.378;2023-04-01T15:11:36;97692.48;;;9.59;96.99
58785;BME280;44557;51.862;19.378;2023-04-01T15:13:54;97693.33;;;9.66;96.60
58785;BME280;44557;51.862;19.378;2023-04-01T15:20:44;97706.39;;;9.40;98.06
58785;BME280;44557;51.862;19.378;2023-04-01T15:22:57;97708.52;;;9.61;97.24
58785;BME280;44557;51.862;19.378;2023-04-01T15:25:22;97717.51;;;9.56;97.04
58785;BME280;44557;51.862;19.378;2023-04-01T15:30:13;97722.23;;;9.56;96.77
58785;BME280;44557;51.862;19.378;2023-04-01T15:35:21;97729.05;;;9.64;95.84
58785;BME280;44557;51.862;19.378;2023-04-01T15:37:51;97731.27;;;9.58;96.44
58785;BME280;44557;51.862;19.378;2023-04-01T15:40:15;97734.32;;;9.73;95.59
58785;BME280;44557;51.862;19.378;2023-04-01T15:42:27;97739.22;;;9.59;95.69
58785;BME280;44557;51.862;19.378;2023-04-01T15:44:49;97742.77;;;9.43;96.38
58785;BME280;44557;51.862;19.378;2023-04-01T15:46:54;97745.06;;;9.44;96.14
58785;BME280;44557;51.862;19.378;2023-04-01T15:49:15;97743.11;;;9.54;95.81
58785;BME280;44557;51.862;19.378;2023-04-01T15:51:36;97743.13;;;9.57;95.49
58785;BME280;44557;51.862;19.378;2023-04-01T15:58:59;97754.61;;;9.59;94.23
58785;BME280;44557;51.862;19.378;2023-04-01T16:13:52;97777.11;;;9.32;95.11
58785;BME280;44557;51.862;19.378;2023-04-01T16:16:18;97784.55;;;9.22;95.83
58785;BME280;44557;51.862;19.378;2023-04-01T16:18:35;97787.88;;;9.12;96.44
58785;BME280;44557;51.862;19.378;2023-04-01T16:20:53;97792.52;;;9.18;96.51
58785;BME280;44557;51.862;19.378;2023-04-01T16:23:11;97789.86;;;9.26;95.90
58785;BME280;44557;51.862;19.378;2023-04-01T16:29:46;97794.39;;;8.90;97.40
58785;BME280;44557;51.862;19.378;2023-04-01T16:31:55;97798.55;;;9.12;96.68
58785;BME280;44557;51.862;19.378;2023-04-01T16:34:17;97805.20;;;9.03;96.78
58785;BME280;44557;51.862;19.378;2023-04-01T16:36:30;97813.06;;;9.17;95.72
58785;BME280;44557;51.862;19.378;2023-04-01T16:41:32;97821.85;;;9.29;94.40
58785;BME280;44557;51.862;19.378;2023-04-01T16:43:51;97824.09;;;9.20;94.43
58785;BME280;44557;51.862;19.378;2023-04-01T16:46:15;97831.41;;;9.15;94.65
58785;BME280;44557;51.862;19.378;2023-04-01T16:48:28;97835.45;;;9.06;95.39
58785;BME280;44557;51.862;19.378;2023-04-01T16:51:00;97837.96;;;9.19;94.77
58785;BME280;44557;51.862;19.378;2023-04-01T16:53:17;97838.06;;;9.27;94.11
58785;BME280;44557;51.862;19.378;2023-04-01T16:55:20;97843.41;;;9.16;94.15
58785;BME280;44557;51.862;19.378;2023-04-01T16:57:26;97843.91;;;8.99;95.08
58785;BME280;44557;51.862;19.378;2023-04-01T17:00:38;97851.45;;;8.93;95.69
58785;BME280;44557;51.862;19.378;2023-04-01T17:04:19;97856.84;;;8.97;95.67
58785;BME280;44557;51.862;19.378;2023-04-01T17:11:20;97875.55;;;9.05;95.92